Main page
METAR-TAF:

METAR-TAF

Airports :

Capo Mele

Andora, Italy

latitude: 43-57N, longitude: 008-10E, elevation: 220 m

Current weather observation

The report was made 44 minutes ago, at 18:55 UTC
Wind 3 kt from the North
Temperature 22°C
Humidity 69%
Pressure 1016 hPa
Visibility 10 km or more
Few clouds at a height of 2000 ft, Towering cumulus.

METAR: LIMU 211855Z 35003KT 9999 FEW020TCU 22/16 Q1016 RMK BKN SCT070 QUK / QUL / VIS MAR 25 KM VIS MIN 9999

Time: 21:39 (19:39 UTC)


TAF: missing

Weather observations and forecasts of more than 4000 airports (METAR and TAF reports).

The available stations are represented by yellow and red dots on the map.

Hover mouse over dot to see the name of the station.

Then click to see weather observations and forecasts.

To change the map : click on the green buttons with a black cross to zoom in, on the green button with a dash to zoom out, or on the green arrows for adjacent maps.


METAR-TAF: